Time;durP1;ratioP1;P1;durP2;ratioP2;P2;SDS_P1;SDS_P2;PMS_P1;PMS_P2;Temp;Humidity;BMP_temperature;BMP_pressure;BME280_temperature;BME280_humidity;BME280_pressure;Samples;Min_cycle;Max_cycle;Signal;HPM_P1;HPM_P2
2023/07/16 00:00:57;;;;;;;;;;;26.00;90.10;;;;;;5097989;28;19965;-45
2023/07/16 00:03:23;;;;;;;;;;;26.00;90.10;;;;;;5097905;28;19915;-42
2023/07/16 00:05:51;;;;;;;;;;;26.00;90.10;;;;;;5097476;28;20348;-41
2023/07/16 00:08:17;;;;;;;;;;;26.10;90.10;;;;;;5097830;28;19947;-42
2023/07/16 00:10:42;;;;;;;;;;;26.00;90.10;;;;;;5097750;28;19908;-41
2023/07/16 00:13:08;;;;;;;;;;;26.10;90.20;;;;;;5097247;28;19908;-41
2023/07/16 00:15:33;;;;;;;;;;;26.00;90.10;;;;;;5097298;28;19912;-41
2023/07/16 00:17:59;;;;;;;;;;;26.00;90.20;;;;;;5097489;28;19912;-44
2023/07/16 00:20:24;;;;;;;;;;;26.00;90.20;;;;;;5097523;28;19920;-41
2023/07/16 00:22:50;;;;;;;;;;;26.10;90.20;;;;;;5097885;28;19924;-42
2023/07/16 00:25:15;;;;;;;;;;;26.10;90.20;;;;;;5097507;28;20405;-41
2023/07/16 00:27:41;;;;;;;;;;;26.00;90.20;;;;;;5097300;28;19951;-41
2023/07/16 00:30:07;;;;;;;;;;;26.10;90.40;;;;;;5097332;28;19912;-43
2023/07/16 00:32:32;;;;;;;;;;;26.10;90.20;;;;;;5096944;28;20391;-42
2023/07/16 00:34:58;;;;;;;;;;;26.10;90.20;;;;;;5097185;28;19961;-42
2023/07/16 00:37:23;;;;;;;;;;;26.10;90.20;;;;;;5096955;28;20290;-42
2023/07/16 00:39:49;;;;;;;;;;;26.10;90.20;;;;;;5097119;28;19919;-42
2023/07/16 00:42:14;;;;;;;;;;;26.10;90.50;;;;;;5097435;28;19912;-42
2023/07/16 00:44:40;;;;;;;;;;;26.10;90.20;;;;;;5096967;28;19927;-42
2023/07/16 00:47:05;;;;;;;;;;;26.10;90.20;;;;;;5096977;28;19912;-42
2023/07/16 00:49:31;;;;;;;;;;;26.10;90.20;;;;;;5096969;28;19908;-42
2023/07/16 00:51:58;;;;;;;;;;;26.10;90.20;;;;;;5096317;28;20386;-42
2023/07/16 00:54:23;;;;;;;;;;;26.10;90.20;;;;;;5096395;28;19909;-42
2023/07/16 00:56:49;;;;;;;;;;;26.10;90.20;;;;;;5078462;28;19908;-46
2023/07/16 00:59:14;;;;;;;;;;;26.10;90.20;;;;;;5096067;28;20400;-43
2023/07/16 01:01:40;;;;;;;;;;;26.10;90.20;;;;;;5096423;28;19916;-42
2023/07/16 01:04:05;;;;;;;;;;;26.10;90.30;;;;;;5096194;28;19947;-43
2023/07/16 01:06:34;;;;;;;;;;;26.10;90.30;;;;;;5096657;28;19908;-42
2023/07/16 01:09:06;;;;;;;;;;;26.10;90.30;;;;;;5096573;28;19951;-41
2023/07/16 01:11:32;;;;;;;;;;;26.10;90.30;;;;;;5096382;28;19915;-44
2023/07/16 01:13:58;;;;;;;;;;;26.10;90.30;;;;;;5096666;28;20018;-43
2023/07/16 01:16:24;;;;;;;;;;;26.10;90.30;;;;;;5096268;28;19908;-44
2023/07/16 01:18:50;;;;;;;;;;;26.10;90.30;;;;;;5096072;28;20271;-42
2023/07/16 01:21:18;;;;;;;;;;;26.10;90.30;;;;;;5096310;28;19919;-42
2023/07/16 01:23:58;;;;;;;;;;;26.10;90.30;;;;;;5096067;28;19915;-43
2023/07/16 01:26:42;;;;;;;;;;;26.10;90.30;;;;;;5096025;28;19908;-41
2023/07/16 01:29:34;;;;;;;;;;;26.10;90.30;;;;;;5096169;28;19912;-42
2023/07/16 01:32:01;;;;;;;;;;;26.10;90.30;;;;;;5072341;28;19914;-43
2023/07/16 01:34:28;;;;;;;;;;;26.10;90.30;;;;;;5096141;28;19919;-41
2023/07/16 01:36:54;;;;;;;;;;;26.10;90.30;;;;;;5077849;28;19915;-42
2023/07/16 01:39:19;;;;;;;;;;;26.10;90.30;;;;;;5095955;28;19912;-41
2023/07/16 01:41:45;;;;;;;;;;;26.10;90.30;;;;;;5096018;28;19957;-44
2023/07/16 01:44:11;;;;;;;;;;;26.10;90.30;;;;;;5077370;28;19914;-41
2023/07/16 01:46:36;;;;;;;;;;;26.10;90.30;;;;;;5095852;28;19931;-43
2023/07/16 01:49:02;;;;;;;;;;;26.10;90.30;;;;;;5095838;28;19912;-42
2023/07/16 01:51:27;;;;;;;;;;;26.10;90.30;;;;;;5095735;28;20347;-41
2023/07/16 01:53:53;;;;;;;;;;;26.10;90.30;;;;;;5095663;28;19915;-43
2023/07/16 01:56:18;;;;;;;;;;;26.10;90.40;;;;;;5095662;28;19962;-42
2023/07/16 01:58:44;;;;;;;;;;;26.10;90.40;;;;;;5095519;28;19912;-42
2023/07/16 02:01:09;;;;;;;;;;;26.10;90.40;;;;;;5095332;28;19965;-43
2023/07/16 02:03:35;;;;;;;;;;;26.10;90.40;;;;;;5095580;28;19951;-42
2023/07/16 02:06:00;;;;;;;;;;;26.10;90.40;;;;;;5095518;28;19908;-42
2023/07/16 02:08:26;;;;;;;;;;;26.10;90.40;;;;;;5095455;28;19915;-42
2023/07/16 02:10:51;;;;;;;;;;;26.10;90.40;;;;;;5094737;28;20007;-43
2023/07/16 02:13:16;;;;;;;;;;;26.10;90.40;;;;;;5095347;28;20390;-41
2023/07/16 02:15:42;;;;;;;;;;;26.10;90.40;;;;;;5095318;28;19915;-43
2023/07/16 02:18:08;;;;;;;;;;;26.10;90.40;;;;;;5095344;28;19909;-42
2023/07/16 02:20:33;;;;;;;;;;;26.10;90.40;;;;;;5094859;28;19924;-42
2023/07/16 02:22:59;;;;;;;;;;;26.10;90.40;;;;;;5094852;28;19909;-43
2023/07/16 02:25:25;;;;;;;;;;;26.10;90.40;;;;;;5095174;28;20366;-41
2023/07/16 02:27:50;;;;;;;;;;;26.10;90.40;;;;;;5094967;28;20251;-43
2023/07/16 02:30:16;;;;;;;;;;;26.10;90.40;;;;;;5094796;28;19912;-42
2023/07/16 02:32:42;;;;;;;;;;;26.10;90.40;;;;;;5094943;28;19914;-43
2023/07/16 02:35:07;;;;;;;;;;;26.10;90.30;;;;;;5094659;28;19908;-41
2023/07/16 02:37:33;;;;;;;;;;;26.10;90.40;;;;;;5094848;28;19923;-43
2023/07/16 02:39:58;;;;;;;;;;;26.10;90.30;;;;;;5094383;28;19912;-42
2023/07/16 02:42:24;;;;;;;;;;;26.20;90.40;;;;;;5094393;28;19951;-42
2023/07/16 02:44:49;;;;;;;;;;;26.20;90.40;;;;;;5094632;28;19920;-41
2023/07/16 02:47:15;;;;;;;;;;;26.20;90.40;;;;;;5094750;28;19961;-41
2023/07/16 02:49:40;;;;;;;;;;;26.20;90.40;;;;;;5094725;28;19915;-43
2023/07/16 02:52:06;;;;;;;;;;;26.20;90.40;;;;;;5094448;28;19958;-41
2023/07/16 02:54:31;;;;;;;;;;;26.20;90.40;;;;;;5094521;28;20359;-42
2023/07/16 02:56:57;;;;;;;;;;;26.20;90.40;;;;;;5094236;28;19912;-41
2023/07/16 02:59:23;;;;;;;;;;;26.20;90.40;;;;;;5094509;28;19920;-42
2023/07/16 03:01:48;;;;;;;;;;;26.20;90.40;;;;;;5094595;28;19965;-42
2023/07/16 03:04:14;;;;;;;;;;;26.20;90.40;;;;;;5094506;28;19942;-42
2023/07/16 03:06:39;;;;;;;;;;;26.20;90.40;;;;;;5094450;28;19955;-43
2023/07/16 03:09:05;;;;;;;;;;;26.10;90.30;;;;;;5094040;28;19912;-42
2023/07/16 03:11:30;;;;;;;;;;;26.20;90.40;;;;;;5094016;28;19998;-41
2023/07/16 03:13:56;;;;;;;;;;;26.10;90.30;;;;;;5094453;28;19919;-41
2023/07/16 03:16:21;;;;;;;;;;;26.20;90.40;;;;;;5094206;28;19912;-42
2023/07/16 03:18:48;;;;;;;;;;;26.20;90.40;;;;;;5093974;28;19912;-43
2023/07/16 03:21:13;;;;;;;;;;;26.20;90.40;;;;;;5076052;28;20293;-41
2023/07/16 03:23:39;;;;;;;;;;;26.20;90.40;;;;;;5094237;28;19915;-41
2023/07/16 03:26:04;;;;;;;;;;;26.20;90.40;;;;;;5094043;28;19908;-41
2023/07/16 03:28:29;;;;;;;;;;;26.20;90.40;;;;;;5093739;28;19953;-42
2023/07/16 03:30:55;;;;;;;;;;;26.20;90.40;;;;;;5093944;28;20000;-43
2023/07/16 03:33:20;;;;;;;;;;;26.20;90.40;;;;;;5094085;28;19952;-42
2023/07/16 03:35:47;;;;;;;;;;;26.20;90.40;;;;;;5093782;28;20085;-42
2023/07/16 03:38:13;;;;;;;;;;;26.20;90.40;;;;;;5093810;28;19908;-42
2023/07/16 03:40:38;;;;;;;;;;;26.20;90.40;;;;;;5093763;28;19919;-42
2023/07/16 03:43:04;;;;;;;;;;;26.20;90.40;;;;;;5093795;28;20224;-41
2023/07/16 03:45:29;;;;;;;;;;;26.20;90.40;;;;;;5093471;28;19951;-45
2023/07/16 03:47:55;;;;;;;;;;;26.10;90.40;;;;;;5093635;28;20003;-42
2023/07/16 03:50:20;;;;;;;;;;;26.20;90.40;;;;;;5093568;28;19915;-42
2023/07/16 03:52:46;;;;;;;;;;;26.20;90.40;;;;;;5093904;28;19915;-42
2023/07/16 03:55:12;;;;;;;;;;;26.20;90.40;;;;;;5093573;28;19908;-42
2023/07/16 03:57:37;;;;;;;;;;;26.20;90.40;;;;;;5093793;28;20290;-41
2023/07/16 04:00:06;;;;;;;;;;;26.20;90.40;;;;;;5093570;28;19912;-43
2023/07/16 04:02:31;;;;;;;;;;;26.20;90.40;;;;;;5093657;28;19912;-41
2023/07/16 04:04:56;;;;;;;;;;;26.20;90.40;;;;;;5093827;28;19958;-41
2023/07/16 04:07:22;;;;;;;;;;;26.20;90.40;;;;;;5093329;28;20275;-43
2023/07/16 04:09:47;;;;;;;;;;;26.20;90.40;;;;;;5093740;28;19908;-42
2023/07/16 04:12:13;;;;;;;;;;;26.20;90.40;;;;;;5094010;28;20259;-43
2023/07/16 04:14:38;;;;;;;;;;;26.20;90.40;;;;;;5093752;28;19908;-42
2023/07/16 04:17:04;;;;;;;;;;;26.20;90.40;;;;;;5093607;28;19951;-41
2023/07/16 04:19:29;;;;;;;;;;;26.20;90.40;;;;;;5093649;28;19912;-40
2023/07/16 04:21:55;;;;;;;;;;;26.20;90.00;;;;;;5093910;28;19919;-40
2023/07/16 04:24:20;;;;;;;;;;;26.20;88.90;;;;;;5093428;28;19908;-40
2023/07/16 04:26:46;;;;;;;;;;;26.20;88.10;;;;;;5093521;28;19908;-40
2023/07/16 04:29:11;;;;;;;;;;;26.20;87.80;;;;;;5091758;28;19916;-41
2023/07/16 04:31:37;;;;;;;;;;;26.10;87.70;;;;;;5096045;28;20297;-44
2023/07/16 04:34:02;;;;;;;;;;;26.10;88.70;;;;;;5100623;28;19916;-42
2023/07/16 04:36:28;;;;;;;;;;;26.10;89.20;;;;;;5109288;28;19995;-43
2023/07/16 04:38:53;;;;;;;;;;;26.10;89.40;;;;;;5117822;28;19912;-43
2023/07/16 04:41:19;;;;;;;;;;;26.10;89.60;;;;;;5117529;28;19911;-42
2023/07/16 04:43:44;;;;;;;;;;;26.10;89.80;;;;;;5117470;28;19907;-45
2023/07/16 04:46:11;;;;;;;;;;;26.10;89.80;;;;;;5091839;28;19927;-42
2023/07/16 04:48:37;;;;;;;;;;;26.10;89.90;;;;;;5098468;28;20030;-44
2023/07/16 04:51:04;;;;;;;;;;;26.10;89.90;;;;;;5097170;28;20077;-41
2023/07/16 04:53:30;;;;;;;;;;;26.10;90.00;;;;;;5094624;28;20352;-41
2023/07/16 04:55:56;;;;;;;;;;;26.10;90.00;;;;;;5098783;28;19912;-45
2023/07/16 04:58:22;;;;;;;;;;;26.10;90.00;;;;;;5096601;28;19908;-41
2023/07/16 05:00:47;;;;;;;;;;;26.10;90.10;;;;;;5103770;28;20243;-41
2023/07/16 05:03:13;;;;;;;;;;;26.20;90.10;;;;;;5112415;28;19912;-41
2023/07/16 05:05:38;;;;;;;;;;;26.20;90.10;;;;;;5096612;28;19916;-42
2023/07/16 05:08:04;;;;;;;;;;;26.20;90.10;;;;;;5097308;28;19939;-41
2023/07/16 05:10:29;;;;;;;;;;;26.20;90.10;;;;;;5097105;28;19912;-41
2023/07/16 05:12:55;;;;;;;;;;;26.20;90.20;;;;;;5096468;28;20300;-43
2023/07/16 05:15:20;;;;;;;;;;;26.20;90.20;;;;;;5113301;28;20314;-41
2023/07/16 05:17:46;;;;;;;;;;;26.20;90.20;;;;;;5116893;28;19912;-40
2023/07/16 05:20:11;;;;;;;;;;;26.20;90.20;;;;;;5107329;28;20007;-41
2023/07/16 05:22:36;;;;;;;;;;;26.20;90.20;;;;;;5096286;28;19920;-42
2023/07/16 05:25:02;;;;;;;;;;;26.20;90.20;;;;;;5086035;28;20359;-42
2023/07/16 05:27:28;;;;;;;;;;;26.20;90.20;;;;;;5099769;28;19938;-41
2023/07/16 05:29:53;;;;;;;;;;;26.20;90.20;;;;;;5084726;28;19965;-44
2023/07/16 05:32:19;;;;;;;;;;;26.20;90.20;;;;;;5096075;28;20311;-40
2023/07/16 05:34:44;;;;;;;;;;;26.20;90.20;;;;;;5099782;28;19916;-43
2023/07/16 05:37:10;;;;;;;;;;;26.20;90.30;;;;;;5095742;28;19919;-43
2023/07/16 05:39:35;;;;;;;;;;;26.20;90.30;;;;;;5108123;28;19923;-41
2023/07/16 05:42:04;;;;;;;;;;;26.20;90.30;;;;;;5095664;28;19912;-42
2023/07/16 05:44:29;;;;;;;;;;;26.20;90.30;;;;;;5105236;28;20300;-41
2023/07/16 05:46:55;;;;;;;;;;;26.20;90.30;;;;;;5095845;28;19912;-41
2023/07/16 05:49:20;;;;;;;;;;;26.20;90.30;;;;;;5095904;28;19920;-43
2023/07/16 05:51:46;;;;;;;;;;;26.20;90.30;;;;;;5095512;28;19995;-41
2023/07/16 05:54:11;;;;;;;;;;;26.20;90.30;;;;;;5104996;28;19908;-41
2023/07/16 05:56:36;;;;;;;;;;;26.20;90.20;;;;;;5098867;28;19923;-42
2023/07/16 05:59:02;;;;;;;;;;;26.20;90.20;;;;;;5088529;28;20601;-42
2023/07/16 06:01:27;;;;;;;;;;;26.20;90.10;;;;;;5090820;28;20003;-41
2023/07/16 06:03:53;;;;;;;;;;;26.20;90.10;;;;;;5095210;28;19908;-42
2023/07/16 06:06:19;;;;;;;;;;;26.20;90.10;;;;;;5095187;28;19915;-40
2023/07/16 06:08:45;;;;;;;;;;;26.20;90.10;;;;;;5113724;28;19908;-43
2023/07/16 06:11:10;;;;;;;;;;;26.20;90.10;;;;;;5101250;28;20263;-40
2023/07/16 06:13:36;;;;;;;;;;;26.20;90.10;;;;;;5112846;28;20373;-42
2023/07/16 06:16:01;;;;;;;;;;;26.20;90.10;;;;;;5105468;28;19919;-43
2023/07/16 06:18:26;;;;;;;;;;;26.20;90.10;;;;;;5113730;28;20002;-41
2023/07/16 06:20:52;;;;;;;;;;;26.20;90.10;;;;;;5115635;28;19962;-41
2023/07/16 06:23:18;;;;;;;;;;;26.20;90.10;;;;;;5115131;28;19919;-42
2023/07/16 06:25:44;;;;;;;;;;;26.20;90.20;;;;;;5102591;28;19973;-42
2023/07/16 06:28:10;;;;;;;;;;;26.20;90.10;;;;;;5106234;28;19912;-41
2023/07/16 06:30:35;;;;;;;;;;;26.20;90.20;;;;;;5095353;28;20267;-42
2023/07/16 06:33:01;;;;;;;;;;;26.20;90.20;;;;;;5106912;28;19907;-42
2023/07/16 06:35:26;;;;;;;;;;;26.20;90.20;;;;;;5102996;28;20049;-40
2023/07/16 06:37:52;;;;;;;;;;;26.30;90.20;;;;;;5094635;28;19915;-39
2023/07/16 06:40:17;;;;;;;;;;;26.20;90.20;;;;;;5099967;28;20239;-41
2023/07/16 06:42:43;;;;;;;;;;;26.30;90.30;;;;;;5094713;28;19916;-43
2023/07/16 06:45:08;;;;;;;;;;;26.20;90.20;;;;;;5094534;28;20359;-42
2023/07/16 06:47:34;;;;;;;;;;;26.20;90.20;;;;;;5094188;28;19915;-45
2023/07/16 06:49:59;;;;;;;;;;;26.20;90.20;;;;;;5094622;28;19961;-43
2023/07/16 06:52:27;;;;;;;;;;;26.20;90.20;;;;;;5095288;28;19961;-42
2023/07/16 06:54:55;;;;;;;;;;;26.30;90.30;;;;;;5094423;28;19940;-43
2023/07/16 06:57:21;;;;;;;;;;;26.30;90.30;;;;;;5095373;28;19959;-42
2023/07/16 06:59:47;;;;;;;;;;;26.30;90.30;;;;;;5094496;28;19958;-41
2023/07/16 07:02:12;;;;;;;;;;;26.30;90.30;;;;;;5103646;28;19916;-42
2023/07/16 07:04:38;;;;;;;;;;;26.30;90.30;;;;;;5108474;28;20015;-40
2023/07/16 07:07:04;;;;;;;;;;;26.30;90.30;;;;;;5113159;28;19965;-42
2023/07/16 07:09:29;;;;;;;;;;;26.30;90.30;;;;;;5101547;28;20255;-42
2023/07/16 07:11:55;;;;;;;;;;;26.30;90.30;;;;;;5099991;28;19912;-40
2023/07/16 07:14:20;;;;;;;;;;;26.30;90.30;;;;;;5112541;28;20370;-43
2023/07/16 07:16:46;;;;;;;;;;;26.30;90.30;;;;;;5095126;28;19915;-42
2023/07/16 07:19:11;;;;;;;;;;;26.30;90.30;;;;;;5114640;28;20328;-42
2023/07/16 07:21:36;;;;;;;;;;;26.30;90.30;;;;;;5114543;28;20014;-43
2023/07/16 07:24:02;;;;;;;;;;;26.30;90.40;;;;;;5110916;28;19919;-42
2023/07/16 07:26:27;;;;;;;;;;;26.30;90.40;;;;;;5105397;28;20019;-41
2023/07/16 07:28:53;;;;;;;;;;;26.30;90.40;;;;;;5114257;28;19915;-42
2023/07/16 07:31:18;;;;;;;;;;;26.30;90.40;;;;;;5096792;28;20302;-43
2023/07/16 07:33:44;;;;;;;;;;;26.30;90.40;;;;;;5094118;28;20363;-42
2023/07/16 07:36:09;;;;;;;;;;;26.30;90.30;;;;;;5093958;28;19911;-41
2023/07/16 07:38:35;;;;;;;;;;;26.30;90.30;;;;;;5091881;28;19920;-41
2023/07/16 07:41:00;;;;;;;;;;;26.30;90.30;;;;;;5100011;28;19916;-43
2023/07/16 07:43:26;;;;;;;;;;;26.30;90.30;;;;;;5109120;28;19957;-42
2023/07/16 07:45:52;;;;;;;;;;;26.30;90.50;;;;;;5094086;28;19920;-43
2023/07/16 07:48:17;;;;;;;;;;;26.30;90.20;;;;;;5103555;28;19953;-44
2023/07/16 07:50:43;;;;;;;;;;;26.30;90.30;;;;;;5114309;28;19908;-43
2023/07/16 07:53:08;;;;;;;;;;;26.30;90.40;;;;;;5114189;28;20291;-41
2023/07/16 07:55:35;;;;;;;;;;;26.30;90.40;;;;;;5101201;28;20003;-41
2023/07/16 07:58:00;;;;;;;;;;;26.30;90.40;;;;;;5084744;28;20315;-44
2023/07/16 08:00:26;;;;;;;;;;;26.30;90.40;;;;;;5105219;28;19961;-44
2023/07/16 08:02:51;;;;;;;;;;;26.30;90.40;;;;;;5092756;28;19912;-42
2023/07/16 08:05:17;;;;;;;;;;;26.30;90.40;;;;;;5081668;28;19991;-41
2023/07/16 08:07:42;;;;;;;;;;;26.30;90.40;;;;;;5092321;28;19908;-42
2023/07/16 08:10:08;;;;;;;;;;;26.30;90.40;;;;;;5097153;28;19911;-43
2023/07/16 08:12:33;;;;;;;;;;;26.30;90.40;;;;;;5097413;28;19923;-44
2023/07/16 08:14:59;;;;;;;;;;;26.30;90.50;;;;;;5098455;28;20295;-47
2023/07/16 08:17:24;;;;;;;;;;;26.30;90.40;;;;;;5097755;28;19904;-42
2023/07/16 08:19:50;;;;;;;;;;;26.30;90.40;;;;;;5079233;28;19908;-41
2023/07/16 08:22:15;;;;;;;;;;;26.30;90.40;;;;;;5096861;28;20054;-44
2023/07/16 08:24:41;;;;;;;;;;;26.30;90.40;;;;;;5097175;28;20003;-40
2023/07/16 08:27:06;;;;;;;;;;;26.30;90.40;;;;;;5097747;28;19912;-43
2023/07/16 08:29:32;;;;;;;;;;;26.30;90.40;;;;;;5117826;28;19918;-41
2023/07/16 08:31:57;;;;;;;;;;;26.30;90.40;;;;;;5102382;28;19912;-41
2023/07/16 08:34:22;;;;;;;;;;;26.30;90.40;;;;;;5096888;28;19904;-43
2023/07/16 08:36:48;;;;;;;;;;;26.30;90.30;;;;;;5097113;28;19995;-43
2023/07/16 08:39:14;;;;;;;;;;;26.30;90.40;;;;;;5101828;28;20227;-42
2023/07/16 08:41:40;;;;;;;;;;;26.30;90.30;;;;;;5099192;28;19943;-43
2023/07/16 08:44:06;;;;;;;;;;;26.30;90.30;;;;;;5116848;28;19947;-42
2023/07/16 08:46:31;;;;;;;;;;;26.40;90.30;;;;;;5115115;28;19915;-42
2023/07/16 08:48:57;;;;;;;;;;;26.30;90.30;;;;;;5090326;28;20028;-42
2023/07/16 08:51:23;;;;;;;;;;;26.40;90.30;;;;;;5092797;28;19904;-43
2023/07/16 08:53:48;;;;;;;;;;;26.30;90.30;;;;;;5096876;28;19904;-41
2023/07/16 08:56:14;;;;;;;;;;;26.30;90.30;;;;;;5096363;28;19908;-42
2023/07/16 08:58:42;;;;;;;;;;;26.30;90.30;;;;;;5095847;28;19904;-46
2023/07/16 09:01:09;;;;;;;;;;;26.40;90.30;;;;;;5096599;28;19908;-41
2023/07/16 09:03:35;;;;;;;;;;;26.30;90.30;;;;;;5095855;28;19904;-42
2023/07/16 09:06:01;;;;;;;;;;;26.40;90.30;;;;;;5096567;28;20224;-43
2023/07/16 09:08:28;;;;;;;;;;;26.30;90.30;;;;;;5096599;28;19919;-44
2023/07/16 09:10:57;;;;;;;;;;;26.30;90.30;;;;;;5102151;28;19914;-42
2023/07/16 09:13:29;;;;;;;;;;;26.40;90.30;;;;;;5117028;28;19990;-42
2023/07/16 09:15:55;;;;;;;;;;;26.30;90.30;;;;;;5116811;28;20358;-44
2023/07/16 09:18:21;;;;;;;;;;;26.40;90.30;;;;;;5116789;28;19904;-41
2023/07/16 09:20:47;;;;;;;;;;;26.40;90.30;;;;;;5116257;28;19915;-42
2023/07/16 09:23:13;;;;;;;;;;;26.40;90.40;;;;;;5117014;28;19904;-46
2023/07/16 09:25:40;;;;;;;;;;;26.40;90.40;;;;;;5103029;28;19984;-46
2023/07/16 09:28:05;;;;;;;;;;;26.40;90.40;;;;;;5078144;28;19908;-43
2023/07/16 09:30:33;;;;;;;;;;;26.30;90.40;;;;;;5095935;28;20045;-41
2023/07/16 09:33:03;;;;;;;;;;;26.40;90.40;;;;;;5096210;28;19911;-42
2023/07/16 09:35:29;;;;;;;;;;;26.40;90.40;;;;;;5096255;28;19939;-42
2023/07/16 09:37:54;;;;;;;;;;;26.40;90.40;;;;;;5095870;28;19965;-42
2023/07/16 09:40:20;;;;;;;;;;;26.40;90.40;;;;;;5095857;28;19908;-44
2023/07/16 09:42:46;;;;;;;;;;;26.40;90.50;;;;;;5096390;28;19908;-42
2023/07/16 09:45:18;;;;;;;;;;;26.40;90.50;;;;;;5095773;28;19923;-42
2023/07/16 09:47:44;;;;;;;;;;;26.40;90.50;;;;;;5098283;28;19999;-42
2023/07/16 09:50:11;;;;;;;;;;;26.40;90.50;;;;;;5101555;28;20307;-43
2023/07/16 09:52:37;;;;;;;;;;;26.40;90.50;;;;;;5116222;28;19957;-44
2023/07/16 09:55:03;;;;;;;;;;;26.40;90.80;;;;;;5116504;28;19904;-43
2023/07/16 09:57:41;;;;;;;;;;;26.40;90.60;;;;;;5115509;28;19904;-44
2023/07/16 10:00:14;;;;;;;;;;;26.40;90.60;;;;;;5097852;28;19912;-45
2023/07/16 10:02:40;;;;;;;;;;;26.40;90.60;;;;;;5095527;28;19908;-45
2023/07/16 10:05:12;;;;;;;;;;;26.40;90.60;;;;;;5095542;28;20374;-43
2023/07/16 10:07:38;;;;;;;;;;;26.40;90.60;;;;;;5095246;28;19998;-46
2023/07/16 10:10:07;;;;;;;;;;;26.40;90.60;;;;;;5095855;28;19950;-44
2023/07/16 10:12:33;;;;;;;;;;;26.40;90.60;;;;;;5115955;28;19990;-42
2023/07/16 10:14:58;;;;;;;;;;;26.40;90.60;;;;;;5115464;28;19991;-42
2023/07/16 10:17:25;;;;;;;;;;;26.40;90.60;;;;;;5113955;28;19915;-43
2023/07/16 10:19:50;;;;;;;;;;;26.40;90.60;;;;;;5115669;28;19907;-43
2023/07/16 10:22:17;;;;;;;;;;;26.40;90.60;;;;;;5105825;28;20002;-44
2023/07/16 10:24:42;;;;;;;;;;;26.40;90.60;;;;;;5095252;28;19954;-42
2023/07/16 10:27:08;;;;;;;;;;;26.40;90.60;;;;;;5095184;28;19926;-43
2023/07/16 10:29:36;;;;;;;;;;;26.40;90.60;;;;;;5113855;28;20035;-43
2023/07/16 10:32:02;;;;;;;;;;;26.40;90.60;;;;;;5114364;28;19908;-47
2023/07/16 10:34:27;;;;;;;;;;;26.40;90.60;;;;;;5094864;28;19961;-46
2023/07/16 10:36:53;;;;;;;;;;;26.40;90.60;;;;;;5094846;28;20332;-43
2023/07/16 10:39:18;;;;;;;;;;;26.40;90.60;;;;;;5094939;28;19950;-43
2023/07/16 10:41:44;;;;;;;;;;;26.40;90.60;;;;;;5094763;28;20296;-45
2023/07/16 10:44:11;;;;;;;;;;;26.40;90.60;;;;;;5094277;28;20011;-43
2023/07/16 10:46:37;;;;;;;;;;;26.40;90.60;;;;;;5094558;28;20255;-44
2023/07/16 10:49:02;;;;;;;;;;;26.40;90.60;;;;;;5094712;28;19911;-43
2023/07/16 10:51:28;;;;;;;;;;;26.40;90.70;;;;;;5113192;28;19982;-42
2023/07/16 10:53:56;;;;;;;;;;;26.40;90.70;;;;;;5112228;28;20402;-45
2023/07/16 10:56:22;;;;;;;;;;;26.40;90.90;;;;;;5101411;28;19938;-44
2023/07/16 10:58:48;;;;;;;;;;;26.40;90.60;;;;;;5114576;28;19910;-41
2023/07/16 11:01:14;;;;;;;;;;;26.40;90.60;;;;;;5101051;28;19919;-42
2023/07/16 11:03:39;;;;;;;;;;;26.40;90.90;;;;;;5092844;28;20253;-44
2023/07/16 11:06:05;;;;;;;;;;;26.40;90.60;;;;;;5094714;28;19904;-43
2023/07/16 11:08:31;;;;;;;;;;;26.40;90.60;;;;;;5111448;28;19981;-42
2023/07/16 11:10:57;;;;;;;;;;;26.40;90.60;;;;;;5107010;28;20010;-46
2023/07/16 11:13:28;;;;;;;;;;;26.40;90.60;;;;;;5094399;28;19927;-42
2023/07/16 11:15:54;;;;;;;;;;;26.40;90.60;;;;;;5102096;28;19904;-42
2023/07/16 11:18:22;;;;;;;;;;;26.40;90.60;;;;;;5114652;28;19904;-45
2023/07/16 11:20:50;;;;;;;;;;;26.40;90.60;;;;;;5110772;28;19963;-42
2023/07/16 11:23:15;;;;;;;;;;;26.40;90.70;;;;;;5095535;28;20263;-49
2023/07/16 11:25:45;;;;;;;;;;;26.40;90.70;;;;;;5114566;28;19904;-44
2023/07/16 11:28:10;;;;;;;;;;;26.40;90.70;;;;;;5114184;28;19904;-44
2023/07/16 11:30:36;;;;;;;;;;;26.40;90.70;;;;;;5092880;28;20256;-42
2023/07/16 11:33:01;;;;;;;;;;;26.40;90.70;;;;;;5093928;28;19930;-45
2023/07/16 11:35:27;;;;;;;;;;;26.40;90.80;;;;;;5094115;28;19915;-42
2023/07/16 11:37:54;;;;;;;;;;;26.40;90.80;;;;;;5093997;28;19999;-43
2023/07/16 11:40:20;;;;;;;;;;;26.40;90.80;;;;;;5094687;28;19912;-42
2023/07/16 11:42:46;;;;;;;;;;;26.40;90.80;;;;;;5076006;28;19987;-43
2023/07/16 11:45:29;;;;;;;;;;;26.40;90.80;;;;;;5079793;28;20331;-44
2023/07/16 11:47:55;;;;;;;;;;;26.40;90.80;;;;;;5098507;28;20281;-44
2023/07/16 11:50:20;;;;;;;;;;;26.40;90.80;;;;;;5103348;28;19987;-44
2023/07/16 11:52:53;;;;;;;;;;;26.40;90.80;;;;;;5106664;28;19912;-42
2023/07/16 11:55:19;;;;;;;;;;;26.40;90.30;;;;;;5086205;28;19915;-42
2023/07/16 11:57:44;;;;;;;;;;;26.40;88.70;;;;;;5098253;28;19908;-42
2023/07/16 12:00:11;;;;;;;;;;;26.30;87.60;;;;;;5109228;28;19916;-41
2023/07/16 12:02:37;;;;;;;;;;;26.30;87.50;;;;;;5095961;28;19916;-46
2023/07/16 12:05:02;;;;;;;;;;;26.30;87.50;;;;;;5101303;28;19919;-43
2023/07/16 12:07:32;;;;;;;;;;;26.30;88.30;;;;;;5113860;28;20003;-43
2023/07/16 12:09:58;;;;;;;;;;;26.30;88.80;;;;;;5077265;28;20310;-42
2023/07/16 12:12:23;;;;;;;;;;;26.30;89.20;;;;;;5077473;28;19908;-44
2023/07/16 12:14:48;;;;;;;;;;;26.40;89.60;;;;;;5084751;28;19999;-42
2023/07/16 12:17:14;;;;;;;;;;;26.40;89.90;;;;;;5097006;28;19912;-43
2023/07/16 12:19:39;;;;;;;;;;;26.40;90.00;;;;;;5097382;28;19915;-41
2023/07/16 12:22:05;;;;;;;;;;;26.40;90.10;;;;;;5097390;28;19919;-43
2023/07/16 12:24:30;;;;;;;;;;;26.40;90.20;;;;;;5097295;28;20384;-45
2023/07/16 12:26:56;;;;;;;;;;;26.40;90.20;;;;;;5097042;28;19912;-43
2023/07/16 12:29:21;;;;;;;;;;;26.40;90.20;;;;;;5097458;28;20270;-43
2023/07/16 12:31:47;;;;;;;;;;;26.40;90.30;;;;;;5104054;28;19912;-42
2023/07/16 12:34:12;;;;;;;;;;;26.40;90.30;;;;;;5117433;28;20002;-43
2023/07/16 12:36:38;;;;;;;;;;;26.40;90.30;;;;;;5113095;28;19912;-42
2023/07/16 12:39:03;;;;;;;;;;;26.40;90.30;;;;;;5098592;28;19923;-44
2023/07/16 12:41:29;;;;;;;;;;;26.40;90.40;;;;;;5095075;28;20362;-42
2023/07/16 12:43:54;;;;;;;;;;;26.40;90.40;;;;;;5108598;28;19995;-42
2023/07/16 12:46:20;;;;;;;;;;;26.40;90.40;;;;;;5075645;28;20410;-44
2023/07/16 12:48:45;;;;;;;;;;;26.40;90.40;;;;;;5090217;28;19935;-42
2023/07/16 12:51:10;;;;;;;;;;;26.40;89.90;;;;;;5076711;28;19964;-44
2023/07/16 12:53:36;;;;;;;;;;;26.30;88.10;;;;;;5076264;28;19936;-44
2023/07/16 12:56:02;;;;;;;;;;;26.30;88.60;;;;;;5076425;28;19909;-41
2023/07/16 12:58:28;;;;;;;;;;;26.30;89.30;;;;;;5076479;28;19908;-42
2023/07/16 13:00:53;;;;;;;;;;;26.40;89.90;;;;;;5075291;28;19912;-42
2023/07/16 13:03:19;;;;;;;;;;;26.40;90.10;;;;;;5075457;28;19913;-42
2023/07/16 13:05:45;;;;;;;;;;;26.40;90.20;;;;;;5082369;28;19908;-42
2023/07/16 13:08:10;;;;;;;;;;;26.40;90.20;;;;;;5095708;28;19915;-44
2023/07/16 13:10:36;;;;;;;;;;;26.40;90.30;;;;;;5096395;28;19916;-45
2023/07/16 13:13:03;;;;;;;;;;;26.40;90.30;;;;;;5078785;28;20003;-43
2023/07/16 13:15:29;;;;;;;;;;;26.40;90.40;;;;;;5075855;28;19920;-46
2023/07/16 13:17:54;;;;;;;;;;;26.40;90.40;;;;;;5075680;28;19913;-42
2023/07/16 13:20:20;;;;;;;;;;;26.40;90.40;;;;;;5075988;28;20252;-42
2023/07/16 13:22:46;;;;;;;;;;;26.40;90.00;;;;;;5081936;28;19931;-41
2023/07/16 13:25:11;;;;;;;;;;;26.40;88.70;;;;;;5090417;28;19912;-41
2023/07/16 13:27:37;;;;;;;;;;;26.40;88.80;;;;;;5083810;28;20399;-43
2023/07/16 13:30:03;;;;;;;;;;;26.40;89.00;;;;;;5079213;28;19933;-43
2023/07/16 13:32:28;;;;;;;;;;;26.40;89.50;;;;;;5071388;28;19982;-45
2023/07/16 13:34:54;;;;;;;;;;;26.40;89.80;;;;;;5092503;28;20343;-43
2023/07/16 13:37:19;;;;;;;;;;;26.40;89.90;;;;;;5095869;28;19912;-41
2023/07/16 13:39:45;;;;;;;;;;;26.40;90.00;;;;;;5095915;28;19985;-45
2023/07/16 13:42:11;;;;;;;;;;;26.40;90.00;;;;;;5095530;28;19918;-42
2023/07/16 13:44:36;;;;;;;;;;;26.40;90.00;;;;;;5100855;28;20312;-41
2023/07/16 13:47:02;;;;;;;;;;;26.40;90.00;;;;;;5116105;28;19968;-44
2023/07/16 13:49:28;;;;;;;;;;;26.40;90.10;;;;;;5115737;28;20438;-41
2023/07/16 13:51:53;;;;;;;;;;;26.40;90.10;;;;;;5116499;28;19908;-43
2023/07/16 13:54:19;;;;;;;;;;;26.40;90.10;;;;;;5115810;28;19907;-43
2023/07/16 13:56:44;;;;;;;;;;;26.40;90.10;;;;;;5116335;28;19953;-42
2023/07/16 13:59:10;;;;;;;;;;;26.40;90.40;;;;;;5115708;28;20278;-45
2023/07/16 14:01:38;;;;;;;;;;;26.40;90.20;;;;;;5116014;28;19916;-42
2023/07/16 14:04:03;;;;;;;;;;;26.40;90.20;;;;;;5115612;28;20006;-45
2023/07/16 14:06:29;;;;;;;;;;;26.40;90.20;;;;;;5114665;28;19954;-41
2023/07/16 14:08:54;;;;;;;;;;;26.40;90.20;;;;;;5115448;28;20012;-42